Iasi, Romania

11:39 AM EET on December 03, 2016 (GMT +0200)
Facultatea de Geografie si Geologie | | Change Station

Elev 358 ft 47.17 °N, 27.57 °E | Updated 0 second ago

Mostly Cloudy
Mostly Cloudy
36.1 °F
Feels Like 26 °F
N
16.1
Wind Variable Wind from WNW
Gusts 0.0 mph

Today
High -- | Low -- °F
--% Chance of Precip.
Yesterday
High -- | Low -- °F
Precip. -- in
Pressure 29.98 in
Visibility 6.2 miles
Clouds Mostly Cloudy 4600 ft
Windchill 26 °F
Dew Point 27 °F
Humidity 70%
Rainfall 0.00 in
Snow Depth Not available.
7:37 AM 4:20 PM
Waxing Crescent, 13% visible
METAR LRIA 030930Z 28008KT 250V350 9999 BKN046 03/M05 Q1015 R14/19//95
Pressure 29.98 in
Visibility 6.2 miles
Clouds Mostly Cloudy 4600 ft
Windchill 26 °F
Dew Point 27 °F
Humidity 70%
Rainfall 0.00 in
Snow Depth Not available.
7:37 AM 4:20 PM
Waxing Crescent, 13% visible
METAR LRIA 030930Z 28008KT 250V350 9999 BKN046 03/M05 Q1015 R14/19//95

10-Day Weather Forecast

×

Almanac

Astronomy

Dec. 03, 2016 Rise Set
Actual Time
Civil Twilight
Nautical Twilight
Astronomical Twilight
Moon
Length of Visible Light
Length of Day
Tomorrow will be .
, % of the Moon is Illuminated

Today's Extremes

Country Highs Country Lows

Community

WunderPhotos

Upload Photos

1,955,434 photos uploaded!

WunderBlog® & News

Nearby

Air Quality

  Air Quality AQ Index Pollutant
Not available.

Snow Depth

Station Depth Elevation

Earthquake Activity

City Distance Mag. Time & Date
Minimum magnitude displayed is 2.5.

Coastal Water Temperatures

Place Temperature

Stations

Nearby Weather Stations

Station Location Temp. Windchill Dew Point Humidity Wind Precip. Elev Updated Type